createdAt,value
2022-12-03T00:01:05.412Z,3.20
2022-12-03T00:03:35.712Z,3.40
2022-12-03T00:06:02.581Z,3.50
2022-12-03T00:08:29.469Z,3.70
2022-12-03T00:10:56.196Z,3.80
2022-12-03T00:13:22.983Z,3.80
2022-12-03T00:15:49.744Z,3.80
2022-12-03T00:18:16.646Z,3.80
2022-12-03T00:20:43.403Z,3.80
2022-12-03T00:23:10.141Z,3.60
2022-12-03T00:25:36.921Z,3.50
2022-12-03T00:28:03.749Z,3.40
2022-12-03T00:30:31.574Z,3.70
2022-12-03T00:32:58.393Z,3.80
2022-12-03T00:35:25.124Z,3.60
2022-12-03T00:37:51.831Z,3.70
2022-12-03T00:40:18.570Z,3.60
2022-12-03T00:42:45.320Z,3.60
2022-12-03T00:45:12.398Z,3.60
2022-12-03T00:47:39.114Z,3.70
2022-12-03T00:50:06.803Z,3.70
2022-12-03T00:52:33.813Z,3.70
2022-12-03T00:55:00.564Z,3.70
2022-12-03T00:57:27.286Z,3.50
2022-12-03T00:59:54.020Z,3.50
2022-12-03T01:02:20.787Z,3.40
2022-12-03T01:04:47.728Z,3.60
2022-12-03T01:07:14.551Z,3.70
2022-12-03T01:09:41.302Z,3.70
2022-12-03T01:12:08.011Z,3.80
2022-12-03T01:14:35.099Z,3.80
2022-12-03T01:17:01.872Z,3.60
2022-12-03T01:19:28.816Z,3.60
2022-12-03T01:21:55.583Z,3.70
2022-12-03T01:24:23.016Z,3.60
2022-12-03T01:26:49.850Z,3.60
2022-12-03T01:29:16.631Z,3.40
2022-12-03T01:32:01.863Z,3.40
2022-12-03T01:34:28.678Z,3.40
2022-12-03T01:36:55.441Z,3.40
2022-12-03T01:39:22.414Z,3.50
2022-12-03T01:41:51.187Z,3.50
2022-12-03T01:44:26.950Z,3.50
2022-12-03T01:46:56.752Z,3.40
2022-12-03T01:49:27.179Z,3.60
2022-12-03T01:51:55.033Z,3.60
2022-12-03T01:54:27.857Z,3.60
2022-12-03T01:56:55.190Z,3.60
2022-12-03T01:59:27.873Z,3.60
2022-12-03T02:01:54.741Z,3.70
2022-12-03T02:04:23.572Z,3.70
2022-12-03T02:06:50.569Z,3.80
2022-12-03T02:09:18.145Z,3.70
2022-12-03T02:11:49.174Z,3.70
2022-12-03T02:14:21.780Z,3.70
2022-12-03T02:16:48.922Z,3.70
2022-12-03T02:19:26.459Z,3.70
2022-12-03T02:22:34.356Z,3.80
2022-12-03T02:25:20.130Z,3.80
2022-12-03T02:27:48.345Z,3.70
2022-12-03T02:30:18.322Z,3.70
2022-12-03T02:32:45.343Z,3.70
2022-12-03T02:35:21.196Z,3.40
2022-12-03T02:37:51.508Z,3.40
2022-12-03T02:40:21.253Z,3.40
2022-12-03T02:42:50.263Z,3.40
2022-12-03T02:45:25.522Z,3.40
2022-12-03T02:47:58.813Z,3.50
2022-12-03T02:50:33.048Z,3.60
2022-12-03T02:53:03.341Z,3.80
2022-12-03T02:55:36.788Z,3.80
2022-12-03T02:58:05.496Z,3.70
2022-12-03T03:00:33.387Z,3.80
2022-12-03T03:03:01.738Z,3.70
2022-12-03T03:05:28.735Z,3.60
2022-12-03T03:07:58.275Z,3.60
2022-12-03T03:10:26.281Z,3.60
2022-12-03T03:12:54.969Z,3.60
2022-12-03T03:15:23.176Z,3.50
2022-12-03T03:17:49.998Z,3.50
2022-12-03T03:20:17.270Z,3.60
2022-12-03T03:22:44.086Z,3.50
2022-12-03T03:25:15.275Z,3.50
2022-12-03T03:27:42.850Z,3.40
2022-12-03T03:30:11.593Z,3.30
2022-12-03T03:32:39.488Z,3.30
2022-12-03T03:35:10.679Z,3.30
2022-12-03T03:37:38.149Z,3.30
2022-12-03T03:40:05.497Z,3.50
2022-12-03T03:42:32.309Z,3.60
2022-12-03T03:45:01.917Z,3.50
2022-12-03T03:47:28.810Z,3.60
2022-12-03T03:49:55.891Z,3.60
2022-12-03T03:52:23.133Z,3.50
2022-12-03T03:54:50.164Z,3.40
2022-12-03T03:57:17.211Z,3.40
2022-12-03T03:59:44.242Z,3.50
2022-12-03T04:02:22.870Z,3.50
2022-12-03T04:04:49.954Z,3.60
2022-12-03T04:07:17.603Z,3.60
2022-12-03T04:09:44.815Z,3.40
2022-12-03T04:12:33.172Z,3.40
2022-12-03T04:15:00.334Z,3.40
2022-12-03T04:17:27.300Z,3.40
2022-12-03T04:19:54.203Z,3.50
2022-12-03T04:22:39.476Z,3.70
2022-12-03T04:25:37.079Z,3.70
2022-12-03T04:28:22.694Z,3.70
2022-12-03T04:30:49.714Z,3.50
2022-12-03T04:33:35.314Z,3.40
2022-12-03T04:36:02.077Z,3.30
2022-12-03T04:38:28.967Z,3.30
2022-12-03T04:41:01.993Z,3.20
2022-12-03T04:43:33.340Z,3.30
2022-12-03T04:46:01.148Z,3.40
2022-12-03T04:48:29.715Z,3.50
2022-12-03T04:50:56.439Z,3.50
2022-12-03T04:53:23.226Z,3.50
2022-12-03T04:55:49.982Z,3.50
2022-12-03T04:58:16.701Z,3.50
2022-12-03T05:00:43.477Z,3.30
2022-12-03T05:03:10.191Z,3.50
2022-12-03T05:05:36.905Z,3.40
2022-12-03T05:08:03.759Z,3.50
2022-12-03T05:10:30.533Z,3.60
2022-12-03T05:12:57.277Z,3.60
2022-12-03T05:15:24.084Z,3.60
2022-12-03T05:17:50.781Z,3.60
2022-12-03T05:20:36.191Z,3.50
2022-12-03T05:23:02.979Z,3.40
2022-12-03T05:25:29.718Z,3.40
2022-12-03T05:27:56.461Z,3.40
2022-12-03T05:30:23.236Z,3.50
2022-12-03T05:32:50.039Z,3.40
2022-12-03T05:35:17.325Z,3.40
2022-12-03T05:37:44.157Z,3.50
2022-12-03T05:40:11.887Z,3.50
2022-12-03T05:42:54.152Z,3.50
2022-12-03T05:45:26.104Z,3.50
2022-12-03T05:47:54.307Z,3.40
2022-12-03T05:50:22.841Z,3.50
2022-12-03T05:52:49.754Z,3.50
2022-12-03T05:55:17.708Z,3.60
2022-12-03T05:57:45.769Z,3.70
2022-12-03T06:00:21.940Z,3.60
2022-12-03T06:02:50.689Z,3.50
2022-12-03T06:05:19.618Z,3.60
2022-12-03T06:07:48.210Z,3.40
2022-12-03T06:10:18.060Z,3.50
2022-12-03T06:12:45.706Z,3.70
2022-12-03T06:15:14.532Z,3.60
2022-12-03T06:17:42.187Z,3.70
2022-12-03T06:20:13.652Z,3.70
2022-12-03T06:22:41.160Z,3.70
2022-12-03T06:25:08.874Z,3.60
2022-12-03T06:27:35.807Z,3.40
2022-12-03T06:30:03.118Z,3.40
2022-12-03T06:32:29.852Z,3.40
2022-12-03T06:34:56.736Z,3.50
2022-12-03T06:37:23.621Z,3.30
2022-12-03T06:39:50.443Z,3.40
2022-12-03T06:42:17.220Z,3.40
2022-12-03T06:44:43.948Z,3.40
2022-12-03T06:47:10.867Z,3.40
2022-12-03T06:49:37.605Z,3.40
2022-12-03T06:52:05.722Z,3.30
2022-12-03T06:54:32.461Z,3.10
2022-12-03T06:56:59.189Z,3.10
2022-12-03T06:59:26.042Z,3.10
2022-12-03T07:01:52.791Z,3.10
2022-12-03T07:04:22.190Z,3.20
2022-12-03T07:06:48.948Z,3.40
2022-12-03T07:09:17.004Z,3.40
2022-12-03T07:11:43.772Z,3.50
2022-12-03T07:14:11.337Z,3.60
2022-12-03T07:16:39.521Z,3.60
2022-12-03T07:19:07.323Z,3.60
2022-12-03T07:21:34.251Z,3.60
2022-12-03T07:24:01.314Z,3.70
2022-12-03T07:26:28.121Z,3.60
2022-12-03T07:28:55.678Z,3.60
2022-12-03T07:31:22.604Z,3.60
2022-12-03T07:33:49.675Z,3.70
2022-12-03T07:36:16.438Z,3.90
2022-12-03T07:38:43.188Z,3.80
2022-12-03T07:41:10.097Z,3.70
2022-12-03T07:43:36.938Z,3.80
2022-12-03T07:46:03.746Z,3.70
2022-12-03T07:48:30.537Z,3.60
2022-12-03T07:50:58.534Z,3.90
2022-12-03T07:53:25.496Z,3.90
2022-12-03T07:55:52.411Z,3.80
2022-12-03T07:58:19.375Z,3.90
2022-12-03T08:00:46.204Z,3.80
2022-12-03T08:03:13.163Z,3.70
2022-12-03T08:05:39.907Z,3.50
2022-12-03T08:08:06.963Z,3.30
2022-12-03T08:10:33.776Z,3.40
2022-12-03T08:13:00.568Z,3.40
2022-12-03T08:15:35.190Z,3.30
2022-12-03T08:18:17.222Z,3.50
2022-12-03T08:20:46.009Z,3.60
2022-12-03T08:23:14.833Z,3.60
2022-12-03T08:25:42.264Z,3.60
2022-12-03T08:28:19.186Z,3.60
2022-12-03T08:31:20.590Z,3.50
2022-12-03T08:33:49.443Z,3.50
2022-12-03T08:36:22.798Z,3.40
2022-12-03T08:38:56.351Z,3.50
2022-12-03T08:41:42.727Z,3.60
2022-12-03T08:44:38.575Z,3.60
2022-12-03T08:47:22.701Z,3.70
2022-12-03T08:49:58.159Z,3.80
2022-12-03T08:52:31.558Z,3.80
2022-12-03T08:54:58.832Z,4.00
2022-12-03T08:57:29.313Z,4.10
2022-12-03T09:00:01.076Z,4.10
2022-12-03T09:02:33.378Z,4.10
2022-12-03T09:05:33.566Z,4.20
2022-12-03T09:08:00.745Z,4.40
2022-12-03T09:10:29.079Z,4.40
2022-12-03T09:12:55.833Z,4.40
2022-12-03T09:15:22.641Z,4.30
2022-12-03T09:17:49.969Z,4.10
2022-12-03T09:20:16.944Z,4.20
2022-12-03T09:22:43.804Z,4.40
2022-12-03T09:25:10.646Z,4.40
2022-12-03T09:27:38.033Z,4.40
2022-12-03T09:30:14.230Z,4.60
2022-12-03T09:32:42.348Z,4.50
2022-12-03T09:35:09.337Z,4.50
2022-12-03T09:37:36.094Z,4.50
2022-12-03T09:40:03.655Z,4.70
2022-12-03T09:42:30.538Z,4.60
2022-12-03T09:44:58.052Z,4.50
2022-12-03T09:47:25.259Z,4.40
2022-12-03T09:49:53.412Z,4.40
2022-12-03T09:52:27.181Z,4.30
2022-12-03T09:54:54.941Z,4.30
2022-12-03T09:57:21.915Z,4.50
2022-12-03T10:00:18.718Z,4.50
2022-12-03T10:02:46.924Z,4.40
2022-12-03T10:05:15.244Z,4.70
2022-12-03T10:07:42.484Z,4.70
2022-12-03T10:10:17.856Z,4.80
2022-12-03T10:12:45.158Z,4.70
2022-12-03T10:15:18.037Z,4.70
2022-12-03T10:17:47.943Z,4.80
2022-12-03T10:20:19.522Z,4.90
2022-12-03T10:22:48.641Z,4.90
2022-12-03T10:25:18.703Z,4.90
2022-12-03T10:28:03.812Z,5.00
2022-12-03T10:30:30.925Z,5.10
2022-12-03T10:32:59.138Z,5.10
2022-12-03T10:35:37.455Z,4.90
2022-12-03T10:38:06.979Z,4.90
2022-12-03T10:40:36.476Z,5.10
2022-12-03T10:43:19.415Z,5.10
2022-12-03T10:45:47.372Z,5.00
2022-12-03T10:48:17.956Z,4.90
2022-12-03T10:50:53.809Z,4.80
2022-12-03T10:53:29.385Z,4.80
2022-12-03T10:55:59.623Z,4.90
2022-12-03T10:58:29.140Z,4.90
2022-12-03T11:00:58.629Z,4.70
2022-12-03T11:03:33.793Z,4.70
2022-12-03T11:06:01.633Z,5.00
2022-12-03T11:08:32.536Z,5.10
2022-12-03T11:11:02.778Z,5.10
2022-12-03T11:13:43.867Z,5.10
2022-12-03T11:16:13.861Z,4.90
2022-12-03T11:18:40.578Z,5.00
2022-12-03T11:21:11.204Z,5.00
2022-12-03T11:23:44.171Z,5.20
2022-12-03T11:26:18.823Z,5.20
2022-12-03T11:28:46.634Z,5.30
2022-12-03T11:31:38.421Z,5.20
2022-12-03T11:34:23.440Z,5.10
2022-12-03T11:37:09.293Z,5.10
2022-12-03T11:39:45.353Z,5.10
2022-12-03T11:42:27.116Z,5.10
2022-12-03T11:45:06.089Z,5.10
2022-12-03T11:47:40.246Z,5.10
2022-12-03T11:50:25.559Z,5.10
2022-12-03T11:53:01.392Z,5.20
2022-12-03T11:55:37.481Z,5.10
2022-12-03T11:58:28.153Z,5.00
2022-12-03T12:00:58.354Z,5.10
2022-12-03T12:03:26.767Z,5.10
2022-12-03T12:06:03.193Z,5.10
2022-12-03T12:08:30.527Z,5.20
2022-12-03T12:10:58.004Z,5.20
2022-12-03T12:13:30.755Z,5.20
2022-12-03T12:16:08.487Z,5.20
2022-12-03T12:18:45.417Z,5.20
2022-12-03T12:21:41.206Z,5.20
2022-12-03T12:24:31.035Z,5.10
2022-12-03T12:27:00.327Z,5.10
2022-12-03T12:29:27.330Z,5.10
2022-12-03T12:32:15.142Z,4.90
2022-12-03T12:34:53.946Z,4.90
2022-12-03T12:37:34.051Z,4.90
2022-12-03T12:40:07.556Z,4.90
2022-12-03T12:42:37.074Z,4.90
2022-12-03T12:45:16.945Z,4.90
2022-12-03T12:47:50.600Z,4.80
2022-12-03T12:50:19.029Z,4.80
2022-12-03T12:53:02.045Z,4.80
2022-12-03T12:55:28.830Z,4.80
2022-12-03T12:57:59.910Z,4.70
2022-12-03T13:00:26.732Z,4.70
2022-12-03T13:03:00.276Z,4.60
2022-12-03T13:05:42.381Z,4.60
2022-12-03T13:08:26.685Z,4.50
2022-12-03T13:10:55.967Z,4.30
2022-12-03T13:13:43.294Z,4.40
2022-12-03T13:16:23.107Z,4.40
2022-12-03T13:18:54.579Z,4.40
2022-12-03T13:21:22.091Z,4.50
2022-12-03T13:23:54.365Z,4.60
2022-12-03T13:26:38.939Z,4.60
2022-12-03T13:29:12.753Z,4.60
2022-12-03T13:31:43.732Z,4.50
2022-12-03T13:34:21.369Z,4.60
2022-12-03T13:39:39.100Z,4.70
2022-12-03T13:42:41.389Z,4.70
2022-12-03T13:45:14.164Z,4.80
2022-12-03T13:47:43.324Z,4.80
2022-12-03T13:54:05.409Z,4.70
2022-12-03T13:56:32.868Z,4.60
2022-12-03T13:59:00.969Z,4.50
2022-12-03T14:01:28.545Z,4.40
2022-12-03T14:03:55.417Z,4.50
2022-12-03T14:06:22.467Z,4.50
2022-12-03T14:08:49.245Z,4.50
2022-12-03T14:11:34.448Z,4.50
2022-12-03T14:14:01.175Z,4.50
2022-12-03T14:16:27.916Z,4.40
2022-12-03T14:18:54.554Z,4.30
2022-12-03T14:21:33.642Z,4.20
2022-12-03T14:24:00.696Z,4.20
2022-12-03T14:26:27.712Z,4.10
2022-12-03T14:28:54.501Z,4.10
2022-12-03T14:31:21.313Z,4.10
2022-12-03T14:33:48.129Z,4.10
2022-12-03T14:36:14.841Z,4.10
2022-12-03T14:38:41.516Z,4.00
2022-12-03T14:41:28.207Z,4.10
2022-12-03T14:43:54.893Z,4.00
2022-12-03T14:46:21.762Z,4.00
2022-12-03T14:48:48.579Z,4.10
2022-12-03T14:51:15.350Z,4.00
2022-12-03T14:53:42.040Z,4.00
2022-12-03T14:56:08.759Z,3.90
2022-12-03T14:58:35.593Z,4.00
2022-12-03T15:01:02.356Z,4.00
2022-12-03T15:03:29.083Z,4.00
2022-12-03T15:05:55.907Z,4.00
2022-12-03T15:08:22.587Z,4.10
2022-12-03T15:10:49.329Z,4.10
2022-12-03T15:13:16.109Z,4.10
2022-12-03T15:15:42.765Z,4.20
2022-12-03T15:18:09.570Z,4.10
2022-12-03T15:20:37.671Z,4.10
2022-12-03T15:23:05.766Z,4.10
2022-12-03T15:25:34.657Z,4.10
2022-12-03T15:28:03.327Z,4.00
2022-12-03T15:30:30.787Z,3.90
2022-12-03T15:32:57.821Z,4.00
2022-12-03T15:35:24.697Z,4.10
2022-12-03T15:38:10.104Z,4.00
2022-12-03T15:40:40.669Z,4.00
2022-12-03T15:43:08.652Z,4.00
2022-12-03T15:45:35.793Z,3.80
2022-12-03T15:48:03.041Z,3.80
2022-12-03T15:50:30.028Z,3.80
2022-12-03T15:52:56.751Z,3.80
2022-12-03T15:55:23.491Z,3.80
2022-12-03T15:57:50.339Z,3.90
2022-12-03T16:00:17.904Z,4.00
2022-12-03T16:02:50.855Z,4.00
2022-12-03T16:05:19.489Z,4.10
2022-12-03T16:07:46.322Z,4.10
2022-12-03T16:10:13.255Z,4.10
2022-12-03T16:12:40.020Z,4.00
2022-12-03T16:15:08.033Z,3.90
2022-12-03T16:17:34.882Z,4.00
2022-12-03T16:20:02.011Z,4.00
2022-12-03T16:22:28.841Z,4.00
2022-12-03T16:24:55.567Z,4.00
2022-12-03T16:27:25.642Z,4.10
2022-12-03T16:29:53.307Z,4.00
2022-12-03T16:32:20.311Z,3.90
2022-12-03T16:34:48.400Z,3.90
2022-12-03T16:37:15.420Z,3.80
2022-12-03T16:39:47.360Z,3.80
2022-12-03T16:42:17.193Z,3.80
2022-12-03T16:45:03.090Z,3.90
2022-12-03T16:47:33.873Z,3.90
2022-12-03T16:50:02.527Z,4.00
2022-12-03T16:52:29.291Z,3.80
2022-12-03T16:54:55.957Z,3.70
2022-12-03T16:57:22.648Z,3.70
2022-12-03T16:59:49.572Z,3.80
2022-12-03T17:02:16.660Z,3.70
2022-12-03T17:04:43.450Z,3.70
2022-12-03T17:07:10.257Z,3.80
2022-12-03T17:09:36.973Z,3.90
2022-12-03T17:12:04.006Z,4.00
2022-12-03T17:14:33.419Z,3.90
2022-12-03T17:17:00.423Z,4.10
2022-12-03T17:19:27.577Z,4.00
2022-12-03T17:21:54.287Z,4.00
2022-12-03T17:24:21.576Z,3.90
2022-12-03T17:26:48.499Z,3.80
2022-12-03T17:29:15.426Z,3.70
2022-12-03T17:31:43.017Z,3.80
2022-12-03T17:34:10.169Z,3.80
2022-12-03T17:36:37.045Z,3.80
2022-12-03T17:39:03.836Z,3.80
2022-12-03T17:41:30.564Z,3.90
2022-12-03T17:43:57.252Z,3.90
2022-12-03T17:46:23.995Z,3.80
2022-12-03T17:48:50.935Z,3.80
2022-12-03T17:51:19.238Z,3.80
2022-12-03T17:53:45.969Z,3.70
2022-12-03T17:56:12.680Z,3.70
2022-12-03T17:58:39.726Z,3.70
2022-12-03T18:01:08.459Z,3.80
2022-12-03T18:03:35.211Z,3.90
2022-12-03T18:06:02.463Z,3.80
2022-12-03T18:08:29.284Z,3.70
2022-12-03T18:10:56.047Z,3.50
2022-12-03T18:13:23.178Z,3.60
2022-12-03T18:15:49.949Z,3.60
2022-12-03T18:18:16.723Z,3.60
2022-12-03T18:20:43.564Z,3.50
2022-12-03T18:23:10.359Z,3.70
2022-12-03T18:25:37.138Z,3.70
2022-12-03T18:28:04.192Z,3.70
2022-12-03T18:30:30.916Z,3.60
2022-12-03T18:32:57.566Z,3.50
2022-12-03T18:35:24.423Z,3.60
2022-12-03T18:37:51.642Z,3.60
2022-12-03T18:40:26.978Z,3.50
2022-12-03T18:42:55.260Z,3.30
2022-12-03T18:45:21.951Z,3.20
2022-12-03T18:47:49.012Z,3.10
2022-12-03T18:50:15.964Z,3.00
2022-12-03T18:52:42.693Z,3.10
2022-12-03T18:55:17.676Z,3.20
2022-12-03T18:57:44.865Z,3.30
2022-12-03T19:00:13.834Z,3.40
2022-12-03T19:05:28.148Z,3.30
2022-12-03T19:07:57.676Z,3.30
2022-12-03T19:10:25.036Z,3.40
2022-12-03T19:12:52.074Z,3.50
2022-12-03T19:15:18.934Z,3.40
2022-12-03T19:17:49.718Z,3.40
2022-12-03T19:20:16.720Z,3.20
2022-12-03T19:22:43.470Z,3.30
2022-12-03T19:25:10.419Z,3.50
2022-12-03T19:27:37.102Z,3.50
2022-12-03T19:30:04.926Z,3.40
2022-12-03T19:32:31.684Z,3.40
2022-12-03T19:34:58.489Z,3.40
2022-12-03T19:37:25.245Z,3.30
2022-12-03T19:39:55.279Z,3.30
2022-12-03T19:42:22.152Z,3.30
2022-12-03T19:44:49.184Z,3.30
2022-12-03T19:47:16.116Z,3.30
2022-12-03T19:49:42.802Z,3.00
2022-12-03T19:52:09.494Z,2.90
2022-12-03T19:54:36.314Z,2.90
2022-12-03T19:57:03.213Z,2.90
2022-12-03T19:59:29.939Z,3.10
2022-12-03T20:01:56.802Z,3.10
2022-12-03T20:04:23.638Z,3.20
2022-12-03T20:06:50.485Z,3.00
2022-12-03T20:09:18.028Z,3.10
2022-12-03T20:11:45.843Z,3.10
2022-12-03T20:14:15.324Z,3.20
2022-12-03T20:16:42.982Z,3.30
2022-12-03T20:19:12.574Z,3.10
2022-12-03T20:21:40.716Z,2.80
2022-12-03T20:24:08.493Z,2.60
2022-12-03T20:26:35.264Z,2.60
2022-12-03T20:29:02.113Z,2.60
2022-12-03T20:31:30.989Z,2.70
2022-12-03T20:34:02.198Z,2.90
2022-12-03T20:36:30.736Z,3.00
2022-12-03T20:38:59.934Z,3.00
2022-12-03T20:41:28.581Z,3.10
2022-12-03T20:43:55.736Z,3.00
2022-12-03T20:46:25.752Z,3.00
2022-12-03T20:49:04.196Z,3.10
2022-12-03T20:51:31.946Z,3.10
2022-12-03T20:54:00.679Z,3.10
2022-12-03T20:56:33.924Z,3.00
2022-12-03T20:59:04.970Z,3.10
2022-12-03T21:01:32.086Z,2.90
2022-12-03T21:03:59.043Z,2.80
2022-12-03T21:06:27.921Z,2.70
2022-12-03T21:08:55.675Z,2.60
2022-12-03T21:11:24.663Z,2.50
2022-12-03T21:13:52.167Z,2.50
2022-12-03T21:16:34.537Z,2.50
2022-12-03T21:19:08.792Z,2.40
2022-12-03T21:21:36.356Z,2.40
2022-12-03T21:24:03.218Z,2.30
2022-12-03T21:26:29.940Z,2.40
2022-12-03T21:28:56.635Z,2.50
2022-12-03T21:31:25.779Z,2.50
2022-12-03T21:33:54.246Z,2.60
2022-12-03T21:36:20.978Z,2.60
2022-12-03T21:38:48.184Z,2.60
2022-12-03T21:41:15.530Z,2.70
2022-12-03T21:43:42.949Z,2.80
2022-12-03T21:47:08.383Z,2.70
2022-12-03T21:48:59.954Z,2.80
2022-12-03T21:51:26.707Z,2.80
2022-12-03T21:53:53.552Z,2.80
2022-12-03T21:56:20.480Z,2.90
2022-12-03T21:58:47.200Z,2.80
2022-12-03T22:01:20.876Z,2.70
2022-12-03T22:03:48.469Z,2.50
2022-12-03T22:06:16.056Z,2.60
2022-12-03T22:08:43.528Z,2.60
2022-12-03T22:11:12.692Z,2.80
2022-12-03T22:13:40.439Z,2.70
2022-12-03T22:16:10.211Z,2.60
2022-12-03T22:18:37.016Z,2.50
2022-12-03T22:21:15.285Z,2.30
2022-12-03T22:23:42.374Z,2.30
2022-12-03T22:26:12.209Z,2.40
2022-12-03T22:28:41.925Z,2.40
2022-12-03T22:31:10.192Z,2.50
2022-12-03T22:33:37.177Z,2.60
2022-12-03T22:36:19.637Z,2.70
2022-12-03T22:38:47.584Z,2.80
2022-12-03T22:41:14.587Z,2.80
2022-12-03T22:43:41.824Z,2.90
2022-12-03T22:46:12.145Z,2.80
2022-12-03T22:48:40.270Z,2.90
2022-12-03T22:51:33.404Z,2.90
2022-12-03T22:54:01.775Z,2.80
2022-12-03T22:56:29.635Z,2.80
2022-12-03T22:58:56.753Z,2.70
2022-12-03T23:01:25.626Z,2.60
2022-12-03T23:03:52.851Z,2.70
2022-12-03T23:06:20.615Z,2.70
2022-12-03T23:08:47.614Z,2.80
2022-12-03T23:11:15.165Z,2.90
2022-12-03T23:13:41.942Z,2.80
2022-12-03T23:16:14.318Z,2.80
2022-12-03T23:18:41.654Z,2.60
2022-12-03T23:21:08.719Z,2.70
2022-12-03T23:23:35.365Z,2.70
2022-12-03T23:26:09.241Z,2.60
2022-12-03T23:28:38.246Z,2.40
2022-12-03T23:31:06.040Z,2.40
2022-12-03T23:33:37.998Z,2.50
2022-12-03T23:36:08.373Z,2.60
2022-12-03T23:38:35.028Z,2.70
2022-12-03T23:41:08.944Z,2.70
2022-12-03T23:43:35.596Z,2.70
2022-12-03T23:46:07.688Z,2.80
2022-12-03T23:48:34.583Z,2.80
2022-12-03T23:51:16.193Z,2.80
2022-12-03T23:53:42.867Z,2.70
2022-12-03T23:56:12.117Z,2.80
2022-12-03T23:58:39.179Z,2.90
